sensor_id;sensor_type;location;lat;lon;timestamp;pressure;altitude;pressure_sealevel;temperature;humidity
74678;BME280;63207;56.328;43.994;2022-09-20T00:01:12;99681.19;;;19.26;57.88
74678;BME280;63207;56.328;43.994;2022-09-20T00:03:40;99670.72;;;19.26;57.75
74678;BME280;63207;56.328;43.994;2022-09-20T00:06:09;99679.53;;;19.25;57.90
74678;BME280;63207;56.328;43.994;2022-09-20T00:08:35;99689.88;;;19.27;57.89
74678;BME280;63207;56.328;43.994;2022-09-20T00:11:03;99687.25;;;19.27;57.89
74678;BME280;63207;56.328;43.994;2022-09-20T00:13:30;99699.53;;;19.26;57.90
74678;BME280;63207;56.328;43.994;2022-09-20T00:15:56;99700.50;;;19.25;57.94
74678;BME280;63207;56.328;43.994;2022-09-20T00:18:41;99714.47;;;19.26;57.91
74678;BME280;63207;56.328;43.994;2022-09-20T00:21:15;99721.47;;;19.25;58.01
74678;BME280;63207;56.328;43.994;2022-09-20T00:23:41;99714.63;;;19.24;57.79
74678;BME280;63207;56.328;43.994;2022-09-20T00:26:27;99712.81;;;19.25;57.93
74678;BME280;63207;56.328;43.994;2022-09-20T00:28:54;99712.97;;;19.23;57.93
74678;BME280;63207;56.328;43.994;2022-09-20T00:31:20;99712.00;;;19.24;57.94
74678;BME280;63207;56.328;43.994;2022-09-20T00:33:45;99706.75;;;19.24;58.05
74678;BME280;63207;56.328;43.994;2022-09-20T00:36:44;99712.97;;;19.23;58.11
74678;BME280;63207;56.328;43.994;2022-09-20T00:39:12;99717.22;;;19.24;57.88
74678;BME280;63207;56.328;43.994;2022-09-20T00:41:38;99715.59;;;19.23;57.94
74678;BME280;63207;56.328;43.994;2022-09-20T00:47:04;99730.50;;;19.23;58.17
74678;BME280;63207;56.328;43.994;2022-09-20T00:49:32;99729.69;;;19.22;58.01
74678;BME280;63207;56.328;43.994;2022-09-20T00:52:01;99733.28;;;19.21;57.88
74678;BME280;63207;56.328;43.994;2022-09-20T00:54:27;99741.16;;;19.21;58.07
74678;BME280;63207;56.328;43.994;2022-09-20T00:56:54;99741.16;;;19.21;58.16
74678;BME280;63207;56.328;43.994;2022-09-20T00:59:23;99743.78;;;19.21;58.08
74678;BME280;63207;56.328;43.994;2022-09-20T01:02:00;99733.28;;;19.21;57.95
74678;BME280;63207;56.328;43.994;2022-09-20T01:04:27;99743.78;;;19.21;58.07
74678;BME280;63207;56.328;43.994;2022-09-20T01:06:57;99735.91;;;19.21;58.05
74678;BME280;63207;56.328;43.994;2022-09-20T01:09:23;99743.78;;;19.21;58.01
74678;BME280;63207;56.328;43.994;2022-09-20T01:11:51;99748.22;;;19.21;58.26
74678;BME280;63207;56.328;43.994;2022-09-20T01:14:18;99756.06;;;19.21;57.99
74678;BME280;63207;56.328;43.994;2022-09-20T01:16:46;99760.31;;;19.22;58.02
74678;BME280;63207;56.328;43.994;2022-09-20T01:22:05;99755.22;;;19.20;58.05
74678;BME280;63207;56.328;43.994;2022-09-20T01:24:46;99758.84;;;19.19;58.05
74678;BME280;63207;56.328;43.994;2022-09-20T01:27:44;99775.38;;;19.20;58.15
74678;BME280;63207;56.328;43.994;2022-09-20T01:33:09;99777.19;;;19.19;58.06
74678;BME280;63207;56.328;43.994;2022-09-20T01:35:38;99781.63;;;19.19;58.17
74678;BME280;63207;56.328;43.994;2022-09-20T01:41:01;99790.31;;;19.19;58.17
74678;BME280;63207;56.328;43.994;2022-09-20T01:46:32;99785.38;;;19.16;58.21
74678;BME280;63207;56.328;43.994;2022-09-20T02:00:29;99815.19;;;19.15;58.32
74678;BME280;63207;56.328;43.994;2022-09-20T02:11:12;99818.78;;;19.14;58.28
74678;BME280;63207;56.328;43.994;2022-09-20T02:13:42;99845.00;;;19.14;58.25
74678;BME280;63207;56.328;43.994;2022-09-20T02:21:52;99833.72;;;19.13;58.21
74678;BME280;63207;56.328;43.994;2022-09-20T02:39:32;99876.78;;;19.11;58.31
74678;BME280;63207;56.328;43.994;2022-09-20T02:44:44;99875.94;;;19.10;58.40
74678;BME280;63207;56.328;43.994;2022-09-20T02:56:21;99878.56;;;19.10;58.35
74678;BME280;63207;56.328;43.994;2022-09-20T02:59:15;99883.81;;;19.10;58.38
74678;BME280;63207;56.328;43.994;2022-09-20T03:02:50;99887.41;;;19.09;58.39
74678;BME280;63207;56.328;43.994;2022-09-20T03:18:31;99893.66;;;19.08;58.41
74678;BME280;63207;56.328;43.994;2022-09-20T03:21:41;99909.38;;;19.08;58.46
74678;BME280;63207;56.328;43.994;2022-09-20T03:24:42;99906.75;;;19.08;58.36
74678;BME280;63207;56.328;43.994;2022-09-20T03:35:42;99919.00;;;19.08;58.34
74678;BME280;63207;56.328;43.994;2022-09-20T03:38:24;99936.53;;;19.07;58.49
74678;BME280;63207;56.328;43.994;2022-09-20T03:46:28;99964.56;;;19.07;58.58
74678;BME280;63207;56.328;43.994;2022-09-20T03:57:26;99980.28;;;19.07;58.62
74678;BME280;63207;56.328;43.994;2022-09-20T04:08:43;100004.88;;;19.06;58.46
74678;BME280;63207;56.328;43.994;2022-09-20T04:14:29;100012.88;;;19.04;58.49
74678;BME280;63207;56.328;43.994;2022-09-20T04:17:17;100018.94;;;19.05;58.33
74678;BME280;63207;56.328;43.994;2022-09-20T04:19:55;100010.25;;;19.04;58.49
74678;BME280;63207;56.328;43.994;2022-09-20T04:22:28;100019.09;;;19.03;58.42
74678;BME280;63207;56.328;43.994;2022-09-20T04:27:42;100017.31;;;19.04;58.56
74678;BME280;63207;56.328;43.994;2022-09-20T04:38:37;100036.59;;;19.03;58.56
74678;BME280;63207;56.328;43.994;2022-09-20T04:44:03;100054.00;;;19.04;58.61
74678;BME280;63207;56.328;43.994;2022-09-20T04:55:48;100066.41;;;19.02;58.53
74678;BME280;63207;56.328;43.994;2022-09-20T05:29:49;100116.53;;;18.99;58.67
74678;BME280;63207;56.328;43.994;2022-09-20T05:32:23;100111.28;;;18.99;58.59
74678;BME280;63207;56.328;43.994;2022-09-20T05:40:24;100107.00;;;18.98;58.68
74678;BME280;63207;56.328;43.994;2022-09-20T05:46:13;100114.72;;;18.99;58.63
74678;BME280;63207;56.328;43.994;2022-09-20T05:48:52;100119.97;;;18.99;58.67
74678;BME280;63207;56.328;43.994;2022-09-20T05:54:38;100129.63;;;18.99;58.51
74678;BME280;63207;56.328;43.994;2022-09-20T06:00:23;100123.72;;;18.97;58.74
74678;BME280;63207;56.328;43.994;2022-09-20T06:02:57;100138.63;;;18.96;58.64
74678;BME280;63207;56.328;43.994;2022-09-20T06:05:48;100144.53;;;18.98;58.59
74678;BME280;63207;56.328;43.994;2022-09-20T06:11:16;100133.38;;;18.96;58.78
74678;BME280;63207;56.328;43.994;2022-09-20T06:14:16;100129.94;;;18.96;58.62
74678;BME280;63207;56.328;43.994;2022-09-20T06:19:49;100149.09;;;18.96;58.50
74678;BME280;63207;56.328;43.994;2022-09-20T06:25:15;100129.94;;;18.96;58.72
74678;BME280;63207;56.328;43.994;2022-09-20T06:27:51;100129.94;;;18.96;58.77
74678;BME280;63207;56.328;43.994;2022-09-20T06:30:36;100140.44;;;18.96;58.69
74678;BME280;63207;56.328;43.994;2022-09-20T06:35:37;100157.09;;;18.94;58.68
74678;BME280;63207;56.328;43.994;2022-09-20T06:40:59;100157.09;;;18.94;58.68
74678;BME280;63207;56.328;43.994;2022-09-20T06:43:45;100158.91;;;18.94;58.93
74678;BME280;63207;56.328;43.994;2022-09-20T06:46:12;100158.91;;;18.94;58.83
74678;BME280;63207;56.328;43.994;2022-09-20T06:48:40;100159.72;;;18.94;58.81
74678;BME280;63207;56.328;43.994;2022-09-20T06:51:07;100163.16;;;18.95;58.71
74678;BME280;63207;56.328;43.994;2022-09-20T06:53:55;100167.59;;;18.94;58.77
74678;BME280;63207;56.328;43.994;2022-09-20T06:56:24;100171.88;;;18.96;58.82
74678;BME280;63207;56.328;43.994;2022-09-20T06:58:51;100173.66;;;18.95;58.69
74678;BME280;63207;56.328;43.994;2022-09-20T07:01:18;100182.38;;;18.96;58.80
74678;BME280;63207;56.328;43.994;2022-09-20T07:03:44;100176.28;;;18.95;58.71
74678;BME280;63207;56.328;43.994;2022-09-20T07:06:11;100197.09;;;18.97;58.73
74678;BME280;63207;56.328;43.994;2022-09-20T07:08:42;100194.47;;;18.97;58.76
74678;BME280;63207;56.328;43.994;2022-09-20T07:11:13;100196.28;;;18.96;58.82
74678;BME280;63207;56.328;43.994;2022-09-20T07:14:00;100206.59;;;18.98;58.68
74678;BME280;63207;56.328;43.994;2022-09-20T07:16:26;100199.72;;;18.97;58.71
74678;BME280;63207;56.328;43.994;2022-09-20T07:18:52;100205.78;;;18.97;58.78
74678;BME280;63207;56.328;43.994;2022-09-20T07:21:19;100208.28;;;18.99;58.77
74678;BME280;63207;56.328;43.994;2022-09-20T07:23:45;100211.03;;;18.97;58.79
74678;BME280;63207;56.328;43.994;2022-09-20T07:26:22;100212.69;;;18.98;58.69
74678;BME280;63207;56.328;43.994;2022-09-20T07:28:49;100208.41;;;18.97;58.77
74678;BME280;63207;56.328;43.994;2022-09-20T07:31:19;100204.97;;;18.97;58.75
74678;BME280;63207;56.328;43.994;2022-09-20T07:33:46;100208.41;;;18.97;58.82
74678;BME280;63207;56.328;43.994;2022-09-20T07:36:12;100203.03;;;18.99;58.66
74678;BME280;63207;56.328;43.994;2022-09-20T07:38:38;100211.84;;;18.98;58.80
74678;BME280;63207;56.328;43.994;2022-09-20T07:41:05;100215.31;;;18.98;58.91
74678;BME280;63207;56.328;43.994;2022-09-20T07:43:31;100218.75;;;18.99;58.69
74678;BME280;63207;56.328;43.994;2022-09-20T07:45:57;100213.50;;;18.99;58.68
74678;BME280;63207;56.328;43.994;2022-09-20T07:48:34;100220.56;;;18.98;58.83
74678;BME280;63207;56.328;43.994;2022-09-20T07:51:04;100222.19;;;18.99;58.81
74678;BME280;63207;56.328;43.994;2022-09-20T07:53:31;100213.66;;;18.97;58.75
74678;BME280;63207;56.328;43.994;2022-09-20T07:56:05;100222.19;;;18.99;58.74
74678;BME280;63207;56.328;43.994;2022-09-20T07:58:33;100222.34;;;18.98;58.80
74678;BME280;63207;56.328;43.994;2022-09-20T08:01:04;100222.34;;;18.98;58.83
74678;BME280;63207;56.328;43.994;2022-09-20T08:03:31;100215.31;;;18.98;58.77
74678;BME280;63207;56.328;43.994;2022-09-20T08:06:02;100218.75;;;18.99;58.82
74678;BME280;63207;56.328;43.994;2022-09-20T08:08:36;100221.38;;;18.99;58.85
74678;BME280;63207;56.328;43.994;2022-09-20T08:11:07;100222.34;;;18.98;58.83
74678;BME280;63207;56.328;43.994;2022-09-20T08:13:47;100231.88;;;18.99;58.85
74678;BME280;63207;56.328;43.994;2022-09-20T08:16:14;100231.03;;;18.98;58.63
74678;BME280;63207;56.328;43.994;2022-09-20T08:18:50;100240.53;;;18.99;58.87
74678;BME280;63207;56.328;43.994;2022-09-20T08:21:17;100228.41;;;18.98;58.83
74678;BME280;63207;56.328;43.994;2022-09-20T08:23:45;100232.69;;;18.99;58.96
74678;BME280;63207;56.328;43.994;2022-09-20T08:26:15;100232.69;;;18.99;58.78
74678;BME280;63207;56.328;43.994;2022-09-20T08:28:45;100243.16;;;18.99;58.76
74678;BME280;63207;56.328;43.994;2022-09-20T08:31:16;100254.47;;;19.00;58.77
74678;BME280;63207;56.328;43.994;2022-09-20T08:33:47;100251.03;;;18.99;58.81
74678;BME280;63207;56.328;43.994;2022-09-20T08:36:34;100262.34;;;19.00;58.77
74678;BME280;63207;56.328;43.994;2022-09-20T08:39:01;100250.03;;;19.00;58.90
74678;BME280;63207;56.328;43.994;2022-09-20T08:41:31;100255.28;;;19.00;58.80
74678;BME280;63207;56.328;43.994;2022-09-20T08:46:42;100252.66;;;19.00;58.78
74678;BME280;63207;56.328;43.994;2022-09-20T08:49:24;100254.34;;;19.01;58.77
74678;BME280;63207;56.328;43.994;2022-09-20T08:51:50;100265.50;;;19.03;58.99
74678;BME280;63207;56.328;43.994;2022-09-20T08:54:16;100260.09;;;19.05;59.24
74678;BME280;63207;56.328;43.994;2022-09-20T08:57:03;100265.06;;;19.08;59.57
74678;BME280;63207;56.328;43.994;2022-09-20T08:59:34;100258.84;;;19.09;59.64
74678;BME280;63207;56.328;43.994;2022-09-20T09:02:00;100255.13;;;19.11;59.81
74678;BME280;63207;56.328;43.994;2022-09-20T09:04:35;100266.13;;;19.15;59.98
74678;BME280;63207;56.328;43.994;2022-09-20T09:07:20;100258.13;;;19.17;60.15
74678;BME280;63207;56.328;43.994;2022-09-20T09:09:51;100272.75;;;19.19;60.05
74678;BME280;63207;56.328;43.994;2022-09-20T09:12:27;100277.84;;;19.21;60.26
74678;BME280;63207;56.328;43.994;2022-09-20T09:15:20;100281.13;;;19.23;60.40
74678;BME280;63207;56.328;43.994;2022-09-20T09:17:44;100281.97;;;19.23;60.48
74678;BME280;63207;56.328;43.994;2022-09-20T09:20:18;100286.09;;;19.26;60.64
74678;BME280;63207;56.328;43.994;2022-09-20T09:22:48;100285.94;;;19.27;60.52
74678;BME280;63207;56.328;43.994;2022-09-20T09:25:26;100292.84;;;19.28;60.71
74678;BME280;63207;56.328;43.994;2022-09-20T09:35:42;100295.16;;;19.31;60.74
74678;BME280;63207;56.328;43.994;2022-09-20T09:38:29;100304.84;;;19.31;60.57
74678;BME280;63207;56.328;43.994;2022-09-20T09:41:00;100296.81;;;19.32;60.69
74678;BME280;63207;56.328;43.994;2022-09-20T09:43:29;100295.16;;;19.31;60.73
74678;BME280;63207;56.328;43.994;2022-09-20T09:46:24;100304.69;;;19.32;60.70
74678;BME280;63207;56.328;43.994;2022-09-20T09:49:05;100304.03;;;19.30;60.56
74678;BME280;63207;56.328;43.994;2022-09-20T09:51:33;100299.72;;;19.29;60.39
74678;BME280;63207;56.328;43.994;2022-09-20T09:54:01;100293.66;;;19.29;60.40
74678;BME280;63207;56.328;43.994;2022-09-20T09:56:59;100303.34;;;19.28;60.71
74678;BME280;63207;56.328;43.994;2022-09-20T10:02:26;100319.34;;;19.25;60.72
74678;BME280;63207;56.328;43.994;2022-09-20T10:05:07;100314.94;;;19.26;60.52
74678;BME280;63207;56.328;43.994;2022-09-20T10:27:15;100322.94;;;19.24;60.36
74678;BME280;63207;56.328;43.994;2022-09-20T10:30:22;100331.78;;;19.23;60.46
74678;BME280;63207;56.328;43.994;2022-09-20T10:38:49;100330.00;;;19.24;60.39
74678;BME280;63207;56.328;43.994;2022-09-20T10:47:15;100332.63;;;19.24;60.63
74678;BME280;63207;56.328;43.994;2022-09-20T10:50:17;100334.41;;;19.23;60.63
74678;BME280;63207;56.328;43.994;2022-09-20T10:56:15;100331.63;;;19.25;60.45
74678;BME280;63207;56.328;43.994;2022-09-20T10:59:15;100335.06;;;19.25;60.56
74678;BME280;63207;56.328;43.994;2022-09-20T11:01:56;100343.09;;;19.24;60.48
74678;BME280;63207;56.328;43.994;2022-09-20T11:09:49;100355.22;;;19.25;60.50
74678;BME280;63207;56.328;43.994;2022-09-20T11:12:28;100348.19;;;19.25;60.33
74678;BME280;63207;56.328;43.994;2022-09-20T11:15:16;100347.22;;;19.26;60.49
74678;BME280;63207;56.328;43.994;2022-09-20T11:18:11;100356.91;;;19.26;60.33
74678;BME280;63207;56.328;43.994;2022-09-20T11:20:44;100349.84;;;19.26;60.20
74678;BME280;63207;56.328;43.994;2022-09-20T11:23:21;100352.47;;;19.26;60.38
74678;BME280;63207;56.328;43.994;2022-09-20T11:25:59;100354.13;;;19.27;60.24
74678;BME280;63207;56.328;43.994;2022-09-20T11:28:39;100353.31;;;19.27;60.24
74678;BME280;63207;56.328;43.994;2022-09-20T11:31:18;100354.13;;;19.27;60.20
74678;BME280;63207;56.328;43.994;2022-09-20T11:34:13;100351.50;;;19.27;60.20
74678;BME280;63207;56.328;43.994;2022-09-20T11:36:50;100355.91;;;19.27;60.28
74678;BME280;63207;56.328;43.994;2022-09-20T11:42:15;100361.03;;;19.28;60.14
74678;BME280;63207;56.328;43.994;2022-09-20T11:44:43;100363.66;;;19.28;60.31
74678;BME280;63207;56.328;43.994;2022-09-20T11:47:34;100368.75;;;19.30;60.10
74678;BME280;63207;56.328;43.994;2022-09-20T11:53:03;100366.13;;;19.30;60.10
74678;BME280;63207;56.328;43.994;2022-09-20T11:58:12;100372.22;;;19.30;60.10
74678;BME280;63207;56.328;43.994;2022-09-20T12:00:40;100374.84;;;19.30;60.27
74678;BME280;63207;56.328;43.994;2022-09-20T12:03:37;100382.69;;;19.30;60.31
74678;BME280;63207;56.328;43.994;2022-09-20T12:08:50;100380.09;;;19.30;60.10
74678;BME280;63207;56.328;43.994;2022-09-20T12:11:30;100389.59;;;19.31;60.15
74678;BME280;63207;56.328;43.994;2022-09-20T12:14:05;100380.91;;;19.31;59.91
74678;BME280;63207;56.328;43.994;2022-09-20T12:16:42;100395.66;;;19.32;60.12
74678;BME280;63207;56.328;43.994;2022-09-20T12:24:26;100407.81;;;19.33;60.06
74678;BME280;63207;56.328;43.994;2022-09-20T12:32:33;100402.56;;;19.33;60.22
74678;BME280;63207;56.328;43.994;2022-09-20T12:34:59;100402.56;;;19.33;60.26
74678;BME280;63207;56.328;43.994;2022-09-20T12:37:25;100406.00;;;19.33;60.13
74678;BME280;63207;56.328;43.994;2022-09-20T12:39:53;100407.66;;;19.34;60.14
74678;BME280;63207;56.328;43.994;2022-09-20T12:47:18;100408.47;;;19.35;60.54
74678;BME280;63207;56.328;43.994;2022-09-20T13:05:42;100419.81;;;19.35;60.06
74678;BME280;63207;56.328;43.994;2022-09-20T13:08:15;100414.41;;;19.37;60.13
74678;BME280;63207;56.328;43.994;2022-09-20T13:10:46;100425.72;;;19.37;60.12
74678;BME280;63207;56.328;43.994;2022-09-20T13:16:32;100422.16;;;19.39;60.09
74678;BME280;63207;56.328;43.994;2022-09-20T13:22:04;100429.03;;;19.40;60.09
74678;BME280;63207;56.328;43.994;2022-09-20T13:24:40;100428.22;;;19.39;60.16
74678;BME280;63207;56.328;43.994;2022-09-20T13:27:16;100422.97;;;19.39;60.09
74678;BME280;63207;56.328;43.994;2022-09-20T13:29:44;100431.66;;;19.40;60.03
74678;BME280;63207;56.328;43.994;2022-09-20T13:32:15;100432.47;;;19.40;60.00
74678;BME280;63207;56.328;43.994;2022-09-20T13:34:42;100435.94;;;19.41;59.93
74678;BME280;63207;56.328;43.994;2022-09-20T13:37:16;100425.47;;;19.41;60.12
74678;BME280;63207;56.328;43.994;2022-09-20T13:39:45;100433.31;;;19.41;60.07
74678;BME280;63207;56.328;43.994;2022-09-20T13:42:14;100428.06;;;19.41;59.93
74678;BME280;63207;56.328;43.994;2022-09-20T13:44:45;100441.19;;;19.41;60.04
74678;BME280;63207;56.328;43.994;2022-09-20T13:47:26;100439.38;;;19.41;60.12
74678;BME280;63207;56.328;43.994;2022-09-20T13:49:53;100440.22;;;19.42;60.15
74678;BME280;63207;56.328;43.994;2022-09-20T13:52:25;100448.09;;;19.42;60.19
74678;BME280;63207;56.328;43.994;2022-09-20T13:54:52;100443.66;;;19.42;59.94
74678;BME280;63207;56.328;43.994;2022-09-20T13:57:29;100449.72;;;19.43;59.95
74678;BME280;63207;56.328;43.994;2022-09-20T13:59:55;100449.72;;;19.43;60.02
74678;BME280;63207;56.328;43.994;2022-09-20T14:02:34;100457.47;;;19.44;59.84
74678;BME280;63207;56.328;43.994;2022-09-20T14:05:19;100468.78;;;19.45;59.96
74678;BME280;63207;56.328;43.994;2022-09-20T14:07:46;100466.16;;;19.45;60.07
74678;BME280;63207;56.328;43.994;2022-09-20T14:10:37;100470.56;;;19.44;60.02
74678;BME280;63207;56.328;43.994;2022-09-20T14:13:14;100478.44;;;19.44;59.96
74678;BME280;63207;56.328;43.994;2022-09-20T14:15:43;100479.25;;;19.45;59.90
74678;BME280;63207;56.328;43.994;2022-09-20T14:18:15;100492.53;;;19.43;59.95
74678;BME280;63207;56.328;43.994;2022-09-20T14:20:45;100486.31;;;19.44;59.88
74678;BME280;63207;56.328;43.994;2022-09-20T14:23:50;100489.75;;;19.45;59.98
74678;BME280;63207;56.328;43.994;2022-09-20T14:28:49;100503.72;;;19.45;59.97
74678;BME280;63207;56.328;43.994;2022-09-20T14:31:18;100499.31;;;19.46;59.91
74678;BME280;63207;56.328;43.994;2022-09-20T14:33:48;100496.69;;;19.46;59.99
74678;BME280;63207;56.328;43.994;2022-09-20T14:36:27;100499.31;;;19.46;60.06
74678;BME280;63207;56.328;43.994;2022-09-20T14:38:56;100504.56;;;19.46;59.96
74678;BME280;63207;56.328;43.994;2022-09-20T14:41:32;100501.94;;;19.46;59.96
74678;BME280;63207;56.328;43.994;2022-09-20T14:43:59;100501.09;;;19.45;60.02
74678;BME280;63207;56.328;43.994;2022-09-20T14:46:31;100506.19;;;19.47;60.03
74678;BME280;63207;56.328;43.994;2022-09-20T14:49:21;100515.88;;;19.46;59.86
74678;BME280;63207;56.328;43.994;2022-09-20T14:57:39;100514.06;;;19.47;59.94
74678;BME280;63207;56.328;43.994;2022-09-20T15:00:16;100522.75;;;19.47;59.81
74678;BME280;63207;56.328;43.994;2022-09-20T15:02:45;100521.94;;;19.47;59.88
74678;BME280;63207;56.328;43.994;2022-09-20T15:05:21;100528.00;;;19.47;59.99
74678;BME280;63207;56.328;43.994;2022-09-20T15:07:49;100527.19;;;19.47;59.95
74678;BME280;63207;56.328;43.994;2022-09-20T15:10:15;100523.59;;;19.48;60.16
74678;BME280;63207;56.328;43.994;2022-09-20T15:12:42;100540.16;;;19.48;59.96
74678;BME280;63207;56.328;43.994;2022-09-20T15:15:12;100540.16;;;19.48;60.03
74678;BME280;63207;56.328;43.994;2022-09-20T15:17:42;100534.91;;;19.48;59.93
74678;BME280;63207;56.328;43.994;2022-09-20T15:20:18;100534.91;;;19.48;60.09
74678;BME280;63207;56.328;43.994;2022-09-20T15:22:48;100529.66;;;19.48;59.96
74678;BME280;63207;56.328;43.994;2022-09-20T15:25:17;100530.50;;;19.49;59.85
74678;BME280;63207;56.328;43.994;2022-09-20T15:27:44;100533.13;;;19.49;60.03
74678;BME280;63207;56.328;43.994;2022-09-20T15:30:16;100530.50;;;19.49;59.99
74678;BME280;63207;56.328;43.994;2022-09-20T15:32:44;100525.25;;;19.49;60.20
74678;BME280;63207;56.328;43.994;2022-09-20T15:35:11;100524.56;;;19.47;60.14
74678;BME280;63207;56.328;43.994;2022-09-20T15:37:39;100527.88;;;19.49;60.23
74678;BME280;63207;56.328;43.994;2022-09-20T15:40:06;100525.25;;;19.49;59.92
74678;BME280;63207;56.328;43.994;2022-09-20T15:42:33;100526.22;;;19.48;60.03
74678;BME280;63207;56.328;43.994;2022-09-20T15:45:06;100526.06;;;19.49;60.08
74678;BME280;63207;56.328;43.994;2022-09-20T15:47:37;100530.38;;;19.50;60.10
74678;BME280;63207;56.328;43.994;2022-09-20T15:50:07;100524.44;;;19.48;60.08
74678;BME280;63207;56.328;43.994;2022-09-20T15:52:35;100537.38;;;19.50;60.22
74678;BME280;63207;56.328;43.994;2022-09-20T15:55:01;100535.75;;;19.49;60.17
74678;BME280;63207;56.328;43.994;2022-09-20T15:57:30;100533.13;;;19.49;60.15
74678;BME280;63207;56.328;43.994;2022-09-20T15:59:55;100539.19;;;19.49;60.09
74678;BME280;63207;56.328;43.994;2022-09-20T16:02:23;100535.75;;;19.49;60.16
74678;BME280;63207;56.328;43.994;2022-09-20T16:04:49;100543.47;;;19.50;60.10
74678;BME280;63207;56.328;43.994;2022-09-20T16:07:19;100550.50;;;19.50;60.14
74678;BME280;63207;56.328;43.994;2022-09-20T16:09:51;100540.84;;;19.50;60.08
74678;BME280;63207;56.328;43.994;2022-09-20T16:12:19;100551.34;;;19.50;60.11
74678;BME280;63207;56.328;43.994;2022-09-20T16:14:45;100549.56;;;19.51;60.08
74678;BME280;63207;56.328;43.994;2022-09-20T16:17:11;100556.59;;;19.50;60.00
74678;BME280;63207;56.328;43.994;2022-09-20T16:19:55;100558.25;;;19.51;60.18
74678;BME280;63207;56.328;43.994;2022-09-20T16:22:21;100551.34;;;19.50;60.12
74678;BME280;63207;56.328;43.994;2022-09-20T16:24:47;100558.38;;;19.50;59.98
74678;BME280;63207;56.328;43.994;2022-09-20T16:27:13;100559.22;;;19.50;60.22
74678;BME280;63207;56.328;43.994;2022-09-20T16:29:42;100560.03;;;19.51;60.14
74678;BME280;63207;56.328;43.994;2022-09-20T16:32:08;100559.22;;;19.50;60.31
74678;BME280;63207;56.328;43.994;2022-09-20T16:34:35;100566.25;;;19.50;60.36
74678;BME280;63207;56.328;43.994;2022-09-20T16:37:10;100564.47;;;19.50;60.31
74678;BME280;63207;56.328;43.994;2022-09-20T16:39:39;100558.25;;;19.51;60.25
74678;BME280;63207;56.328;43.994;2022-09-20T16:42:07;100562.66;;;19.51;60.29
74678;BME280;63207;56.328;43.994;2022-09-20T16:44:38;100565.28;;;19.51;60.24
74678;BME280;63207;56.328;43.994;2022-09-20T16:47:06;100573.97;;;19.51;60.21
74678;BME280;63207;56.328;43.994;2022-09-20T16:49:36;100573.97;;;19.51;60.21
74678;BME280;63207;56.328;43.994;2022-09-20T16:52:04;100573.16;;;19.51;60.22
74678;BME280;63207;56.328;43.994;2022-09-20T16:54:30;100573.97;;;19.51;60.23
74678;BME280;63207;56.328;43.994;2022-09-20T16:56:55;100588.91;;;19.51;60.15
74678;BME280;63207;56.328;43.994;2022-09-20T16:59:21;100586.28;;;19.51;60.20
74678;BME280;63207;56.328;43.994;2022-09-20T17:01:49;100586.28;;;19.51;60.06
74678;BME280;63207;56.328;43.994;2022-09-20T17:04:16;100586.28;;;19.51;60.12
74678;BME280;63207;56.328;43.994;2022-09-20T17:07:01;100590.72;;;19.50;60.15
74678;BME280;63207;56.328;43.994;2022-09-20T17:09:27;100586.13;;;19.52;60.23
74678;BME280;63207;56.328;43.994;2022-09-20T17:11:53;100580.34;;;19.49;60.13
74678;BME280;63207;56.328;43.994;2022-09-20T17:14:19;100587.09;;;19.51;60.18
74678;BME280;63207;56.328;43.994;2022-09-20T17:16:46;100581.03;;;19.51;60.28
74678;BME280;63207;56.328;43.994;2022-09-20T17:19:14;100592.34;;;19.51;60.18
74678;BME280;63207;56.328;43.994;2022-09-20T17:21:42;100584.59;;;19.50;60.21
74678;BME280;63207;56.328;43.994;2022-09-20T17:24:10;100588.91;;;19.51;60.22
74678;BME280;63207;56.328;43.994;2022-09-20T17:26:38;100581.16;;;19.49;60.20
74678;BME280;63207;56.328;43.994;2022-09-20T17:29:23;100586.28;;;19.51;60.19
74678;BME280;63207;56.328;43.994;2022-09-20T17:31:49;100588.91;;;19.51;60.18
74678;BME280;63207;56.328;43.994;2022-09-20T17:34:24;100595.94;;;19.50;60.13
74678;BME280;63207;56.328;43.994;2022-09-20T17:36:51;100595.94;;;19.50;60.24
74678;BME280;63207;56.328;43.994;2022-09-20T17:39:18;100596.78;;;19.51;60.16
74678;BME280;63207;56.328;43.994;2022-09-20T17:41:46;100611.69;;;19.50;60.14
74678;BME280;63207;56.328;43.994;2022-09-20T17:44:13;100609.88;;;19.51;60.18
74678;BME280;63207;56.328;43.994;2022-09-20T17:46:44;100607.25;;;19.51;60.34
74678;BME280;63207;56.328;43.994;2022-09-20T17:49:14;100620.38;;;19.51;60.16
74678;BME280;63207;56.328;43.994;2022-09-20T17:51:51;100623.97;;;19.50;60.21
74678;BME280;63207;56.328;43.994;2022-09-20T17:54:18;100617.75;;;19.51;60.06
74678;BME280;63207;56.328;43.994;2022-09-20T17:56:46;100623.00;;;19.51;60.26
74678;BME280;63207;56.328;43.994;2022-09-20T17:59:14;100626.47;;;19.51;60.28
74678;BME280;63207;56.328;43.994;2022-09-20T18:01:41;100620.50;;;19.49;60.07
74678;BME280;63207;56.328;43.994;2022-09-20T18:04:09;100631.00;;;19.49;60.02
74678;BME280;63207;56.328;43.994;2022-09-20T18:06:37;100615.25;;;19.49;60.01
74678;BME280;63207;56.328;43.994;2022-09-20T18:09:05;100628.38;;;19.49;60.08
74678;BME280;63207;56.328;43.994;2022-09-20T18:11:51;100630.19;;;19.49;60.02
74678;BME280;63207;56.328;43.994;2022-09-20T18:14:19;100620.50;;;19.49;60.16
74678;BME280;63207;56.328;43.994;2022-09-20T18:16:46;100623.13;;;19.49;60.16
74678;BME280;63207;56.328;43.994;2022-09-20T18:19:30;100622.19;;;19.50;60.07
74678;BME280;63207;56.328;43.994;2022-09-20T18:22:00;100625.75;;;19.49;60.12